Time;durP1;ratioP1;P1;durP2;ratioP2;P2;SDS_P1;SDS_P2;PMS_P1;PMS_P2;Temp;Humidity;BMP_temperature;BMP_pressure;BME280_temperature;BME280_humidity;BME280_pressure;Samples;Min_cycle;Max_cycle;Signal;HPM_P1;HPM_P2
2023/06/17 00:02:05;;;;;;;20.35;13.90;;;16.10;83.90;;;;;;5135802;27;20038;-78
2023/06/17 00:04:31;;;;;;;17.30;14.10;;;16.10;83.90;;;;;;5085036;27;20567;-79
2023/06/17 00:06:56;;;;;;;17.10;14.00;;;16.10;84.00;;;;;;5134530;27;20057;-79
2023/06/17 00:09:22;;;;;;;22.98;15.07;;;16.10;84.50;;;;;;5118298;27;20164;-78
2023/06/17 00:11:48;;;;;;;16.13;13.10;;;16.00;84.30;;;;;;5135959;27;20039;-79
2023/06/17 00:14:16;;;;;;;17.35;15.07;;;16.00;84.30;;;;;;5135502;27;20042;-78
2023/06/17 00:16:45;;;;;;;22.10;15.10;;;16.00;84.30;;;;;;5135927;27;20050;-79
2023/06/17 00:19:15;;;;;;;19.27;14.95;;;16.00;84.40;;;;;;5118656;27;20043;-79
2023/06/17 00:21:49;;;;;;;16.92;14.52;;;16.00;84.60;;;;;;5118938;27;20364;-79
2023/06/17 00:24:16;;;;;;;15.95;13.48;;;15.90;84.90;;;;;;5101055;27;20047;-78
2023/06/17 00:26:41;;;;;;;18.65;15.15;;;15.80;84.80;;;;;;5118439;27;20104;-78
2023/06/17 00:29:07;;;;;;;14.43;12.60;;;15.80;84.80;;;;;;5101245;27;20039;-76
2023/06/17 00:31:33;;;;;;;19.10;16.98;;;15.70;85.00;;;;;;5135337;27;20035;-78
2023/06/17 00:34:00;;;;;;;19.13;16.55;;;15.60;84.90;;;;;;5117895;27;20082;-78
2023/06/17 00:36:26;;;;;;;22.10;18.55;;;15.60;85.20;;;;;;5135293;27;20043;-76
2023/06/17 00:38:52;;;;;;;26.83;16.73;;;15.60;85.30;;;;;;5117579;27;20038;-79
2023/06/17 00:41:18;;;;;;;17.88;15.55;;;15.60;85.50;;;;;;5101275;27;20406;-77
2023/06/17 00:43:44;;;;;;;18.50;16.58;;;15.50;85.80;;;;;;5117955;27;20086;-78
2023/06/17 00:46:23;;;;;;;17.42;14.95;;;15.40;85.80;;;;;;5135330;27;20099;-77
2023/06/17 00:48:48;;;;;;;19.08;14.75;;;15.40;86.40;;;;;;5134919;27;20081;-77
2023/06/17 00:51:15;;;;;;;17.92;16.02;;;15.30;86.10;;;;;;5101046;27;20082;-78
2023/06/17 00:53:41;;;;;;;19.88;14.63;;;15.30;86.10;;;;;;5100957;27;20039;-79
2023/06/17 00:56:07;;;;;;;19.58;16.40;;;15.40;86.60;;;;;;5133730;27;20426;-78
2023/06/17 00:58:35;;;;;;;16.92;14.52;;;15.30;86.60;;;;;;5134793;27;20053;-78
2023/06/17 01:01:01;;;;;;;15.15;13.18;;;15.20;86.70;;;;;;5117332;27;20495;-79
2023/06/17 01:03:29;;;;;;;14.93;13.00;;;15.20;87.00;;;;;;5117623;27;20031;-77
2023/06/17 01:05:59;;;;;;;15.23;13.63;;;15.20;87.10;;;;;;5118452;27;20035;-77
2023/06/17 01:08:44;;;;;;;17.67;15.90;;;15.00;87.10;;;;;;5134808;27;20118;-77
2023/06/17 01:11:17;;;;;;;15.93;14.10;;;15.00;87.10;;;;;;5133377;27;20445;-78
2023/06/17 01:13:45;;;;;;;16.53;14.93;;;14.90;87.10;;;;;;5134529;27;20115;-78
2023/06/17 01:16:11;;;;;;;17.63;15.13;;;14.90;87.10;;;;;;5134679;27;20039;-78
2023/06/17 01:18:40;;;;;;;18.42;14.45;;;14.80;87.20;;;;;;5100607;27;20042;-78
2023/06/17 01:21:06;;;;;;;21.23;18.08;;;14.90;87.30;;;;;;5117438;27;20047;-77
2023/06/17 01:23:34;;;;;;;22.02;18.27;;;14.90;87.30;;;;;;5134262;27;20047;-77
2023/06/17 01:26:01;;;;;;;17.05;15.25;;;14.90;87.40;;;;;;5117150;27;20085;-78
2023/06/17 01:28:29;;;;;;;19.17;15.38;;;14.90;87.30;;;;;;5116261;27;20445;-77
2023/06/17 01:30:55;;;;;;;23.05;14.77;;;15.00;87.30;;;;;;5100406;27;20042;-78
2023/06/17 01:33:22;;;;;;;21.65;15.45;;;15.00;87.40;;;;;;5116919;27;20035;-78
2023/06/17 01:36:05;;;;;;;17.50;15.38;;;15.00;87.30;;;;;;5134258;27;20126;-78
2023/06/17 01:38:38;;;;;;;19.20;15.27;;;15.10;87.40;;;;;;5134236;27;20075;-78
2023/06/17 01:41:37;;;;;;;17.60;14.63;;;15.10;87.30;;;;;;5132679;27;20586;-78
2023/06/17 01:44:04;;;;;;;16.27;12.75;;;15.10;87.30;;;;;;5098355;27;20388;-78
2023/06/17 01:46:30;;;;;;;15.93;13.82;;;15.10;87.40;;;;;;5117014;27;20039;-79
2023/06/17 01:48:57;;;;;;;19.83;15.10;;;15.20;87.30;;;;;;5134017;27;20035;-78
2023/06/17 01:51:23;;;;;;;20.92;14.95;;;15.20;87.50;;;;;;5134227;27;20035;-78
2023/06/17 01:53:48;;;;;;;17.90;14.80;;;15.20;87.50;;;;;;5116831;27;20538;-78
2023/06/17 01:56:14;;;;;;;20.50;13.75;;;15.20;87.50;;;;;;5134331;27;20046;-78
2023/06/17 01:58:40;;;;;;;19.00;15.63;;;15.30;87.80;;;;;;5099849;27;20031;-78
2023/06/17 02:01:05;;;;;;;19.13;15.85;;;15.20;87.70;;;;;;5115688;27;20063;-78
2023/06/17 02:03:31;;;;;;;16.67;14.90;;;15.30;87.80;;;;;;5116339;27;20039;-78
2023/06/17 02:05:57;;;;;;;16.45;13.02;;;15.30;87.90;;;;;;5116476;27;20117;-78
2023/06/17 02:08:23;;;;;;;20.90;16.00;;;15.40;88.00;;;;;;5133456;27;20391;-78
2023/06/17 02:10:49;;;;;;;19.27;15.55;;;15.40;88.00;;;;;;5115972;27;20035;-78
2023/06/17 02:13:14;;;;;;;16.75;14.50;;;15.50;88.00;;;;;;5098518;27;20039;-78
2023/06/17 02:15:42;;;;;;;19.15;13.73;;;15.50;87.90;;;;;;5097876;27;20403;-77
2023/06/17 02:18:09;;;;;;;22.33;15.52;;;15.60;87.80;;;;;;5116881;27;20108;-78
2023/06/17 02:20:35;;;;;;;21.50;17.45;;;15.70;87.70;;;;;;5116286;27;20045;-77
2023/06/17 02:23:00;;;;;;;21.38;17.40;;;15.80;87.70;;;;;;5133143;27;20043;-77
2023/06/17 02:25:26;;;;;;;22.15;18.25;;;15.80;87.50;;;;;;5115957;27;20055;-77
2023/06/17 02:27:52;;;;;;;25.48;18.67;;;15.90;87.40;;;;;;5116295;27;20372;-78
2023/06/17 02:30:18;;;;;;;23.25;20.00;;;15.90;87.40;;;;;;5116205;27;20394;-77
2023/06/17 02:32:43;;;;;;;22.73;17.95;;;16.00;87.30;;;;;;5115341;28;20168;-78
2023/06/17 02:35:10;;;;;;;23.55;18.20;;;15.90;87.30;;;;;;5133708;27;20065;-78
2023/06/17 02:37:37;;;;;;;26.65;20.33;;;16.00;87.40;;;;;;5116418;28;20095;-79
2023/06/17 02:40:08;;;;;;;23.15;19.70;;;16.00;87.30;;;;;;5133253;28;20051;-78
2023/06/17 02:42:38;;;;;;;21.50;18.08;;;16.00;87.30;;;;;;5133729;28;20046;-78
2023/06/17 02:45:04;;;;;;;20.77;18.02;;;16.00;87.20;;;;;;5133275;28;20505;-78
2023/06/17 02:47:30;;;;;;;24.33;19.25;;;16.10;87.10;;;;;;5131959;27;20039;-78
2023/06/17 02:49:56;;;;;;;21.42;19.15;;;16.10;87.30;;;;;;5098921;28;20039;-78
2023/06/17 02:52:22;;;;;;;28.95;20.70;;;16.10;87.20;;;;;;5133298;28;20075;-78
2023/06/17 02:54:48;;;;;;;23.75;18.48;;;16.10;87.70;;;;;;5116085;28;20088;-77
2023/06/17 02:57:15;;;;;;;23.38;18.42;;;16.10;87.60;;;;;;5132889;28;20043;-78
2023/06/17 02:59:41;;;;;;;21.08;18.85;;;16.10;87.50;;;;;;5116383;28;20483;-78
2023/06/17 03:02:06;;;;;;;22.58;17.50;;;16.10;87.50;;;;;;5133025;28;20039;-78
2023/06/17 03:04:35;;;;;;;24.80;19.38;;;16.20;87.70;;;;;;5132236;27;20035;-78
2023/06/17 03:07:05;;;;;;;29.08;18.95;;;16.20;87.90;;;;;;5116043;28;20035;-78
2023/06/17 03:09:31;;;;;;;21.27;16.88;;;16.10;87.60;;;;;;5132607;28;20046;-78
2023/06/17 03:11:59;;;;;;;23.95;18.17;;;16.10;87.80;;;;;;5098117;28;20038;-78
2023/06/17 03:14:24;;;;;;;24.55;17.40;;;16.10;88.00;;;;;;5115279;28;20046;-78
2023/06/17 03:16:50;;;;;;;26.73;16.65;;;16.20;87.90;;;;;;5114886;28;20395;-78
2023/06/17 03:19:17;;;;;;;19.45;15.60;;;16.20;87.90;;;;;;5130692;27;20047;-78
2023/06/17 03:21:45;;;;;;;19.00;16.38;;;16.10;88.10;;;;;;5115035;28;20038;-78
2023/06/17 03:24:11;;;;;;;18.70;13.88;;;16.10;87.90;;;;;;5115627;27;20122;-78
2023/06/17 03:26:36;;;;;;;25.05;16.35;;;16.10;87.80;;;;;;5119444;27;20046;-78
2023/06/17 03:29:04;;;;;;;18.95;13.50;;;16.10;87.70;;;;;;5136607;27;20035;-78
2023/06/17 03:31:29;;;;;;;21.45;16.23;;;16.20;87.80;;;;;;5119336;27;20397;-78
2023/06/17 03:33:55;;;;;;;22.08;15.68;;;16.20;87.70;;;;;;5135814;27;20119;-78
2023/06/17 03:36:30;;;;;;;19.48;16.25;;;16.10;87.50;;;;;;5102562;27;20043;-78
2023/06/17 03:38:56;;;;;;;23.17;16.65;;;16.20;87.50;;;;;;5136672;27;20039;-78
2023/06/17 03:41:26;;;;;;;19.98;14.65;;;16.20;87.40;;;;;;5124227;27;20031;-77
2023/06/17 03:43:52;;;;;;;20.70;17.17;;;16.30;87.50;;;;;;5136449;27;20043;-78
2023/06/17 03:46:19;;;;;;;20.35;15.32;;;16.40;87.50;;;;;;5119418;27;20035;-78
2023/06/17 03:48:44;;;;;;;16.67;14.20;;;16.40;87.50;;;;;;5119965;27;20089;-77
2023/06/17 03:51:11;;;;;;;18.85;14.85;;;16.40;87.30;;;;;;5101392;27;20063;-77
2023/06/17 03:53:36;;;;;;;15.52;12.75;;;16.40;87.30;;;;;;5119699;27;20041;-78
2023/06/17 03:56:02;;;;;;;18.20;15.73;;;16.40;87.10;;;;;;5142989;27;20034;-77
2023/06/17 03:58:28;;;;;;;22.75;15.80;;;16.40;86.90;;;;;;5128330;27;20026;-77
2023/06/17 04:00:54;;;;;;;20.35;16.83;;;16.40;87.10;;;;;;5128279;27;20019;-77
2023/06/17 04:03:24;;;;;;;19.30;14.88;;;16.40;87.20;;;;;;5128134;27;20023;-77
2023/06/17 04:05:51;;;;;;;23.50;15.48;;;16.40;87.20;;;;;;5128731;27;20022;-77
2023/06/17 04:08:18;;;;;;;20.98;16.77;;;16.40;87.20;;;;;;5127164;27;20019;-78
2023/06/17 04:10:44;;;;;;;19.35;13.70;;;16.40;87.10;;;;;;5162098;27;20027;-78
2023/06/17 04:13:10;;;;;;;19.48;16.02;;;16.50;87.20;;;;;;5144933;27;20039;-77
2023/06/17 04:15:36;;;;;;;21.05;16.83;;;16.50;86.90;;;;;;5144894;27;20048;-78
2023/06/17 04:18:02;;;;;;;19.75;14.90;;;16.40;87.00;;;;;;5127841;27;20037;-78
2023/06/17 04:20:29;;;;;;;22.80;16.13;;;16.40;87.00;;;;;;5128038;27;20039;-77
2023/06/17 04:22:54;;;;;;;19.63;15.27;;;16.40;87.10;;;;;;5144044;27;20037;-77
2023/06/17 04:25:20;;;;;;;21.40;15.25;;;16.40;87.20;;;;;;5139792;27;20047;-78
2023/06/17 04:27:53;;;;;;;21.48;16.75;;;16.50;87.20;;;;;;5103072;28;20036;-77
2023/06/17 04:30:19;;;;;;;19.58;15.05;;;16.50;87.30;;;;;;5137404;28;20019;-77
2023/06/17 04:32:45;;;;;;;17.75;14.77;;;16.50;87.20;;;;;;5138746;28;20055;-77
2023/06/17 04:35:11;;;;;;;24.17;16.90;;;16.50;87.10;;;;;;5137554;28;20043;-77
2023/06/17 04:37:37;;;;;;;24.13;15.20;;;16.50;87.00;;;;;;5120037;28;20043;-77
2023/06/17 04:40:06;;;;;;;22.65;15.30;;;16.50;87.00;;;;;;5137451;28;20062;-78
2023/06/17 04:42:33;;;;;;;24.23;15.32;;;16.60;87.00;;;;;;5136367;28;20048;-79
2023/06/17 04:44:59;;;;;;;20.10;14.38;;;16.60;86.80;;;;;;5124091;27;20042;-78
2023/06/17 04:47:25;;;;;;;17.48;15.32;;;16.60;86.70;;;;;;5123588;27;20031;-78
2023/06/17 04:49:51;;;;;;;17.98;13.52;;;16.60;87.00;;;;;;5127298;27;20506;-79
2023/06/17 04:52:19;;;;;;;23.23;14.60;;;16.70;86.60;;;;;;5084745;27;20038;-80
2023/06/17 04:54:48;;;;;;;18.85;13.32;;;16.70;86.40;;;;;;5135656;27;20042;-79
2023/06/17 04:57:14;;;;;;;16.67;14.50;;;16.70;86.60;;;;;;5101342;27;20548;-79
2023/06/17 04:59:40;;;;;;;17.60;14.50;;;16.70;86.80;;;;;;5117736;27;20364;-78
2023/06/17 05:02:06;;;;;;;26.98;15.65;;;16.80;86.70;;;;;;5118072;27;20074;-78
2023/06/17 05:04:31;;;;;;;18.17;13.20;;;16.80;86.80;;;;;;5101677;27;20035;-79
2023/06/17 05:06:57;;;;;;;20.38;15.85;;;16.90;87.00;;;;;;5106987;27;20061;-79
2023/06/17 05:09:23;;;;;;;18.17;15.30;;;16.80;86.30;;;;;;5125274;27;20053;-79
2023/06/17 05:11:49;;;;;;;15.98;13.85;;;16.80;86.10;;;;;;5089457;27;20031;-78
2023/06/17 05:14:15;;;;;;;22.30;18.00;;;16.80;86.10;;;;;;5123715;27;20039;-79
2023/06/17 05:16:40;;;;;;;21.58;17.25;;;16.80;85.80;;;;;;5120661;27;20123;-79
2023/06/17 05:19:06;;;;;;;24.00;16.73;;;16.80;85.90;;;;;;5114674;28;20043;-79
2023/06/17 05:21:32;;;;;;;23.70;17.88;;;16.80;85.90;;;;;;5105114;27;20043;-79
2023/06/17 05:23:57;;;;;;;19.05;16.70;;;16.90;85.80;;;;;;5083616;27;20062;-78
2023/06/17 05:26:23;;;;;;;23.20;18.73;;;16.90;85.60;;;;;;5135579;27;20043;-77
2023/06/17 05:28:49;;;;;;;24.05;18.40;;;16.90;85.60;;;;;;5137939;27;20043;-80
2023/06/17 05:31:15;;;;;;;27.55;19.40;;;16.90;85.70;;;;;;5102146;27;20475;-79
2023/06/17 05:33:40;;;;;;;23.23;16.58;;;16.90;86.10;;;;;;5117776;27;20074;-80
2023/06/17 05:36:06;;;;;;;22.27;16.73;;;16.90;86.30;;;;;;5134633;27;20091;-80
2023/06/17 05:38:32;;;;;;;18.83;14.98;;;16.90;86.10;;;;;;5134445;27;20258;-80
2023/06/17 05:40:58;;;;;;;18.50;15.52;;;16.90;86.10;;;;;;5117310;27;20039;-79
2023/06/17 05:43:28;;;;;;;17.98;15.00;;;17.00;86.10;;;;;;5134606;27;20049;-80
2023/06/17 05:45:54;;;;;;;18.80;16.80;;;17.00;86.00;;;;;;5116923;27;20031;-79
2023/06/17 05:48:20;;;;;;;25.58;18.52;;;17.00;86.00;;;;;;5133504;27;20031;-79
2023/06/17 05:50:45;;;;;;;18.45;16.42;;;17.10;86.00;;;;;;5100445;27;20532;-78
2023/06/17 05:53:11;;;;;;;20.30;15.40;;;17.10;85.80;;;;;;5117289;27;20039;-78
2023/06/17 05:55:37;;;;;;;21.45;15.80;;;17.00;85.90;;;;;;5100329;27;20126;-79
2023/06/17 05:58:02;;;;;;;17.63;15.02;;;17.10;86.00;;;;;;5100332;27;20045;-78
2023/06/17 06:00:28;;;;;;;23.05;14.70;;;17.10;85.90;;;;;;5116962;27;20035;-79
2023/06/17 06:02:54;;;;;;;22.25;15.70;;;17.10;85.90;;;;;;5117039;27;20043;-79
2023/06/17 06:05:20;;;;;;;18.45;15.75;;;17.20;86.10;;;;;;5112700;28;20028;-79
2023/06/17 06:07:45;;;;;;;21.20;12.27;;;17.20;86.10;;;;;;5113453;28;20039;-78
2023/06/17 06:10:12;;;;;;;21.60;14.60;;;17.30;86.00;;;;;;5113358;28;20035;-80
2023/06/17 06:12:38;;;;;;;20.17;14.70;;;17.40;85.80;;;;;;5096849;28;20051;-79
2023/06/17 06:15:05;;;;;;;18.50;13.63;;;17.50;85.60;;;;;;5113273;28;20075;-79
2023/06/17 06:17:31;;;;;;;21.08;13.68;;;17.60;85.10;;;;;;5096331;28;20048;-78
2023/06/17 06:19:57;;;;;;;20.52;14.73;;;17.60;84.60;;;;;;5096258;28;20077;-80
2023/06/17 06:22:23;;;;;;;19.73;14.10;;;17.60;84.50;;;;;;5096870;27;20083;-79
2023/06/17 06:24:49;;;;;;;18.00;11.82;;;17.70;84.60;;;;;;5116401;27;20051;-79
2023/06/17 06:27:15;;;;;;;16.48;13.68;;;17.80;84.60;;;;;;5100136;28;20508;-79
2023/06/17 06:29:40;;;;;;;15.63;10.77;;;17.80;84.30;;;;;;5116666;27;20047;-80
2023/06/17 06:32:07;;;;;;;14.02;12.55;;;17.90;84.20;;;;;;5116483;27;20031;-78
2023/06/17 06:34:33;;;;;;;20.55;12.63;;;17.90;83.90;;;;;;5116877;27;20035;-79
2023/06/17 06:36:59;;;;;;;19.63;13.50;;;18.00;83.40;;;;;;5133883;27;20119;-79
2023/06/17 06:39:26;;;;;;;16.02;12.60;;;18.00;83.60;;;;;;5116579;28;20038;-79
2023/06/17 06:41:52;;;;;;;13.80;11.18;;;18.00;83.60;;;;;;5112976;28;20042;-78
2023/06/17 06:44:18;;;;;;;16.58;11.32;;;18.10;83.30;;;;;;5113036;28;20036;-79
2023/06/17 06:46:45;;;;;;;12.95;11.48;;;18.20;82.80;;;;;;5095964;28;20039;-79
2023/06/17 06:49:11;;;;;;;15.23;11.70;;;18.30;82.50;;;;;;5096027;28;20043;-80
2023/06/17 06:51:37;;;;;;;16.88;12.27;;;18.40;82.40;;;;;;5096263;28;20036;-79
2023/06/17 06:54:03;;;;;;;17.35;11.55;;;18.50;82.20;;;;;;5095985;28;20468;-78
2023/06/17 06:56:29;;;;;;;15.82;9.73;;;18.50;82.20;;;;;;5096494;28;20036;-79
2023/06/17 06:58:58;;;;;;;17.67;11.77;;;18.60;82.10;;;;;;5107702;28;20153;-77
2023/06/17 07:01:26;;;;;;;15.50;11.05;;;18.60;81.40;;;;;;5104777;27;20043;-80
2023/06/17 07:03:52;;;;;;;13.98;10.90;;;18.60;81.50;;;;;;5120448;27;20134;-78
2023/06/17 07:06:18;;;;;;;13.40;9.68;;;18.70;81.50;;;;;;5138694;27;20062;-79
2023/06/17 07:08:44;;;;;;;16.67;11.32;;;18.70;81.40;;;;;;5138515;27;20058;-79
2023/06/17 07:11:10;;;;;;;14.63;11.82;;;18.80;80.90;;;;;;5120679;27;20027;-79
2023/06/17 07:13:36;;;;;;;12.85;10.25;;;19.00;80.70;;;;;;5120330;27;20051;-78
2023/06/17 07:16:01;;;;;;;14.27;10.35;;;19.20;80.30;;;;;;5119473;27;20035;-79
2023/06/17 07:18:27;;;;;;;13.80;9.75;;;19.40;79.60;;;;;;5137012;27;20035;-79
2023/06/17 07:20:53;;;;;;;16.15;11.25;;;19.40;79.50;;;;;;5136686;27;20502;-79
2023/06/17 07:23:19;;;;;;;17.90;12.52;;;19.50;79.00;;;;;;5119238;27;20043;-79
2023/06/17 07:25:45;;;;;;;13.63;10.55;;;19.50;78.80;;;;;;5119982;27;20051;-79
2023/06/17 07:28:11;;;;;;;14.23;11.88;;;19.60;78.20;;;;;;5120109;27;20035;-80
2023/06/17 07:30:36;;;;;;;14.23;10.95;;;19.60;78.10;;;;;;5120203;27;20039;-80
2023/06/17 07:33:03;;;;;;;14.13;10.63;;;19.60;78.00;;;;;;5136061;27;20474;-78
2023/06/17 07:35:29;;;;;;;15.38;9.95;;;19.60;77.80;;;;;;5136794;27;20042;-79
2023/06/17 07:37:57;;;;;;;14.20;10.52;;;19.60;77.80;;;;;;5120151;27;20057;-79
2023/06/17 07:40:23;;;;;;;16.48;10.50;;;19.60;77.60;;;;;;5121942;27;20039;-77
2023/06/17 07:42:49;;;;;;;15.30;10.77;;;19.70;77.40;;;;;;5136453;27;20043;-77
2023/06/17 07:45:15;;;;;;;16.63;11.18;;;19.70;76.80;;;;;;5136505;27;20104;-78
2023/06/17 07:47:41;;;;;;;15.18;10.98;;;19.80;76.80;;;;;;5136518;27;20506;-77
2023/06/17 07:50:10;;;;;;;19.52;12.20;;;19.90;76.90;;;;;;5101155;27;20073;-80
2023/06/17 07:52:39;;;;;;;15.15;11.88;;;19.90;77.00;;;;;;5136292;27;20054;-79
2023/06/17 07:55:08;;;;;;;15.23;12.15;;;20.00;77.10;;;;;;5102398;27;20047;-77
2023/06/17 07:57:37;;;;;;;14.48;10.95;;;20.10;76.40;;;;;;5119149;27;20050;-78
2023/06/17 08:00:12;;;;;;;17.58;11.85;;;20.10;76.30;;;;;;5102182;27;20039;-79
2023/06/17 08:02:42;;;;;;;12.68;10.23;;;20.20;76.20;;;;;;5120119;27;20071;-79
2023/06/17 08:05:09;;;;;;;14.68;10.68;;;20.40;76.10;;;;;;5117959;27;20482;-78
2023/06/17 08:07:35;;;;;;;15.88;12.00;;;20.50;76.10;;;;;;5119209;27;20054;-80
2023/06/17 08:10:02;;;;;;;17.05;12.70;;;20.60;75.50;;;;;;5119121;27;20067;-78
2023/06/17 08:12:27;;;;;;;15.55;10.57;;;20.70;75.40;;;;;;5134620;27;20035;-78
2023/06/17 08:14:53;;;;;;;14.23;11.13;;;20.80;75.10;;;;;;5135900;27;20038;-78
2023/06/17 08:17:19;;;;;;;12.43;10.48;;;20.80;74.70;;;;;;5101584;27;20039;-76
2023/06/17 08:19:47;;;;;;;14.68;11.05;;;20.90;74.00;;;;;;5118633;27;20074;-77
2023/06/17 08:22:13;;;;;;;15.43;10.57;;;20.90;73.90;;;;;;5117787;27;20042;-78
2023/06/17 08:24:41;;;;;;;15.85;10.95;;;21.00;73.90;;;;;;5118149;27;20055;-78
2023/06/17 08:27:09;;;;;;;14.63;11.45;;;21.00;73.80;;;;;;5118568;27;20035;-79
2023/06/17 08:29:35;;;;;;;16.05;11.57;;;21.00;73.40;;;;;;5118925;27;20035;-77
2023/06/17 08:32:01;;;;;;;15.25;10.82;;;21.00;73.10;;;;;;5135654;27;20091;-75
2023/06/17 08:34:30;;;;;;;15.50;12.15;;;21.00;72.90;;;;;;5135666;27;20039;-77
2023/06/17 08:36:56;;;;;;;12.75;9.63;;;21.20;73.10;;;;;;5101716;27;20054;-77
2023/06/17 08:39:25;;;;;;;15.75;10.98;;;21.20;72.90;;;;;;5118507;27;20046;-78
2023/06/17 08:41:52;;;;;;;17.48;11.23;;;21.40;72.20;;;;;;5117504;27;20487;-78
2023/06/17 08:44:21;;;;;;;13.23;10.82;;;21.40;71.90;;;;;;5101187;27;20040;-78
2023/06/17 08:46:49;;;;;;;16.23;9.98;;;21.50;72.10;;;;;;5135271;27;20088;-79
2023/06/17 08:49:19;;;;;;;16.50;11.07;;;21.50;72.10;;;;;;5135126;27;20118;-79
2023/06/17 08:51:52;;;;;;;15.90;12.60;;;21.60;72.00;;;;;;5135419;27;20039;-76
2023/06/17 08:54:20;;;;;;;17.45;12.10;;;21.70;71.20;;;;;;5135116;27;20459;-78
2023/06/17 08:56:46;;;;;;;14.48;10.68;;;21.60;71.20;;;;;;5135558;27;20043;-77
2023/06/17 08:59:12;;;;;;;17.40;11.60;;;21.60;71.70;;;;;;5113989;28;20448;-77
2023/06/17 09:01:38;;;;;;;15.90;9.80;;;21.60;71.90;;;;;;5097801;28;20027;-77
2023/06/17 09:04:05;;;;;;;16.85;11.82;;;21.60;72.10;;;;;;5080336;28;20176;-77
2023/06/17 09:06:33;;;;;;;17.27;12.18;;;21.70;71.70;;;;;;5114304;28;20031;-79
2023/06/17 09:08:59;;;;;;;14.30;11.10;;;21.90;72.10;;;;;;5114512;28;20035;-77
2023/06/17 09:11:27;;;;;;;12.43;9.88;;;22.00;71.80;;;;;;5080699;28;20035;-77
2023/06/17 09:14:03;;;;;;;14.00;11.07;;;22.10;71.30;;;;;;5115857;27;20480;-76
2023/06/17 09:16:30;;;;;;;13.50;10.10;;;22.30;70.30;;;;;;5117637;27;20035;-76
2023/06/17 09:18:57;;;;;;;13.27;9.85;;;22.40;69.70;;;;;;5134631;27;20057;-77
2023/06/17 09:21:27;;;;;;;12.48;9.48;;;22.50;69.60;;;;;;5117433;27;20039;-77
2023/06/17 09:23:58;;;;;;;15.63;10.85;;;22.60;69.30;;;;;;5133610;27;20055;-78
2023/06/17 09:26:35;;;;;;;13.98;10.93;;;22.70;68.60;;;;;;5134379;27;20035;-76
2023/06/17 09:29:05;;;;;;;13.63;9.38;;;22.80;68.60;;;;;;5135296;27;20088;-76
2023/06/17 09:31:33;;;;;;;15.00;9.73;;;22.90;69.00;;;;;;5116994;27;20080;-77
2023/06/17 09:34:03;;;;;;;14.70;10.95;;;23.10;69.00;;;;;;5134745;27;20047;-77
2023/06/17 09:36:29;;;;;;;14.68;10.10;;;23.30;67.70;;;;;;5135258;27;20060;-77
2023/06/17 09:38:55;;;;;;;15.68;11.15;;;23.50;68.20;;;;;;5117984;27;20046;-76
2023/06/17 09:41:23;;;;;;;13.85;10.57;;;23.70;68.10;;;;;;5135560;27;20039;-78
2023/06/17 09:43:52;;;;;;;12.48;10.43;;;23.80;66.80;;;;;;5119081;27;20043;-77
2023/06/17 09:46:29;;;;;;;15.48;9.85;;;23.90;64.20;;;;;;5133788;27;20099;-78
2023/06/17 09:48:55;;;;;;;13.13;9.68;;;23.90;64.60;;;;;;5117944;27;20035;-78
2023/06/17 09:51:23;;;;;;;11.45;9.18;;;23.90;64.30;;;;;;5117263;27;20047;-78
2023/06/17 09:53:54;;;;;;;12.77;10.57;;;24.00;64.00;;;;;;5116300;27;20045;-79
2023/06/17 09:56:20;;;;;;;12.65;9.13;;;24.00;63.90;;;;;;5120382;27;20599;-77
2023/06/17 09:58:47;;;;;;;13.50;9.13;;;24.00;63.30;;;;;;5117377;27;20483;-78
2023/06/17 10:01:13;;;;;;;12.38;10.18;;;24.10;62.10;;;;;;5117621;27;20129;-78
2023/06/17 10:03:41;;;;;;;11.95;8.63;;;24.00;62.30;;;;;;5117258;27;20043;-78
2023/06/17 10:06:09;;;;;;;12.00;8.27;;;24.10;62.70;;;;;;5134439;27;20035;-77
2023/06/17 10:08:39;;;;;;;12.80;9.27;;;24.30;62.50;;;;;;5136272;27;20074;-78
2023/06/17 10:11:04;;;;;;;12.07;8.68;;;24.40;60.90;;;;;;5117600;27;20039;-78
2023/06/17 10:13:35;;;;;;;10.88;8.65;;;24.50;60.50;;;;;;5117466;27;20035;-77
2023/06/17 10:16:08;;;;;;;13.68;9.35;;;24.60;60.00;;;;;;5134002;27;20079;-78
2023/06/17 10:18:36;;;;;;;13.05;9.07;;;24.60;59.90;;;;;;5134246;27;20043;-78
2023/06/17 10:21:05;;;;;;;12.60;9.88;;;24.70;59.90;;;;;;5118296;27;20041;-77
2023/06/17 10:23:32;;;;;;;14.00;9.52;;;24.70;60.80;;;;;;5156104;27;20039;-77
2023/06/17 10:25:58;;;;;;;13.00;8.57;;;24.70;60.50;;;;;;5139212;28;20021;-78
2023/06/17 10:28:24;;;;;;;13.95;9.15;;;24.80;59.90;;;;;;5156514;27;20035;-78
2023/06/17 10:30:52;;;;;;;12.77;9.77;;;24.80;60.40;;;;;;5140433;27;20035;-78
2023/06/17 10:33:29;;;;;;;11.13;9.13;;;24.80;59.90;;;;;;5121634;27;20039;-78
2023/06/17 10:36:07;;;;;;;12.27;9.60;;;24.90;59.80;;;;;;5156987;27;20035;-79
2023/06/17 10:38:34;;;;;;;13.05;9.65;;;24.90;59.30;;;;;;5157386;27;20043;-79
2023/06/17 10:40:59;;;;;;;15.25;8.73;;;24.90;59.70;;;;;;5141754;28;20051;-79
2023/06/17 10:43:27;;;;;;;13.30;9.55;;;24.90;58.90;;;;;;5141946;28;20031;-78
2023/06/17 10:45:54;;;;;;;12.60;8.80;;;25.10;58.60;;;;;;5159494;28;20047;-79
2023/06/17 10:48:23;;;;;;;12.32;9.35;;;25.20;58.40;;;;;;5142251;28;20019;-78
2023/06/17 10:50:53;;;;;;;15.35;9.38;;;25.40;58.10;;;;;;5159425;28;20023;-78
2023/06/17 10:53:28;;;;;;;13.15;10.05;;;25.50;57.70;;;;;;5158392;27;20051;-79
2023/06/17 10:55:56;;;;;;;16.95;9.85;;;25.50;57.50;;;;;;5159412;28;20047;-78
2023/06/17 10:58:22;;;;;;;12.30;8.55;;;25.50;57.40;;;;;;5141372;28;20030;-78
2023/06/17 11:01:07;;;;;;;14.23;9.52;;;25.50;56.00;;;;;;5138222;28;20039;-78
2023/06/17 11:03:34;;;;;;;12.45;9.75;;;25.40;56.00;;;;;;5125064;28;20043;-78
2023/06/17 11:06:05;;;;;;;10.75;8.55;;;25.40;56.40;;;;;;5123395;28;20038;-79
2023/06/17 11:08:33;;;;;;;13.00;8.60;;;25.70;56.90;;;;;;5143618;27;20039;-76
2023/06/17 11:11:17;;;;;;;11.40;8.55;;;25.90;55.30;;;;;;5120515;28;20043;-76
2023/06/17 11:13:47;;;;;;;11.70;8.77;;;26.10;55.20;;;;;;5119537;28;20092;-76
2023/06/17 11:16:12;;;;;;;9.57;8.40;;;26.20;54.40;;;;;;5125401;28;20035;-78
2023/06/17 11:18:42;;;;;;;11.63;8.63;;;26.30;54.20;;;;;;5133151;28;20554;-76
2023/06/17 11:21:09;;;;;;;12.02;9.35;;;26.40;53.60;;;;;;5099559;28;20556;-78
2023/06/17 11:23:41;;;;;;;11.95;8.32;;;26.60;54.40;;;;;;5132701;28;20114;-78
2023/06/17 11:26:07;;;;;;;9.88;8.20;;;26.80;53.60;;;;;;5131565;27;20520;-78
2023/06/17 11:28:39;;;;;;;10.30;7.70;;;26.90;51.10;;;;;;5098949;28;20035;-79
2023/06/17 11:31:05;;;;;;;11.70;8.05;;;26.90;50.80;;;;;;5132614;28;20039;-77
2023/06/17 11:33:32;;;;;;;10.07;9.07;;;26.90;51.60;;;;;;5132841;28;20421;-79
2023/06/17 11:35:59;;;;;;;10.00;7.70;;;27.10;52.00;;;;;;5132000;28;20047;-78
2023/06/17 11:38:26;;;;;;;14.18;9.68;;;27.00;51.50;;;;;;5102136;28;20043;-77
2023/06/17 11:40:56;;;;;;;10.02;7.70;;;27.00;52.20;;;;;;5132561;28;20052;-77
2023/06/17 11:43:26;;;;;;;12.20;8.00;;;27.10;53.10;;;;;;5132605;28;20039;-78
2023/06/17 11:45:56;;;;;;;13.35;8.65;;;27.40;51.80;;;;;;5134186;27;20039;-77
2023/06/17 11:48:29;;;;;;;9.88;8.05;;;27.40;50.80;;;;;;5136374;27;20067;-77
2023/06/17 11:50:58;;;;;;;11.85;8.35;;;27.50;51.30;;;;;;5136532;27;20062;-77
2023/06/17 11:53:34;;;;;;;11.05;8.45;;;27.70;51.30;;;;;;5119050;27;20425;-78
2023/06/17 11:56:07;;;;;;;16.67;9.88;;;27.70;50.60;;;;;;5119780;27;20039;-77
2023/06/17 11:58:39;;;;;;;13.75;8.65;;;27.70;50.00;;;;;;5119355;27;20082;-76
2023/06/17 12:01:07;;;;;;;12.23;8.90;;;27.70;49.40;;;;;;5136583;27;20047;-76
2023/06/17 12:03:33;;;;;;;12.43;8.80;;;27.60;50.00;;;;;;5136223;27;20383;-76
2023/06/17 12:05:59;;;;;;;10.73;7.72;;;28.00;50.00;;;;;;5135911;27;20036;-78
2023/06/17 12:08:33;;;;;;;9.20;8.05;;;28.30;49.00;;;;;;5118930;27;20046;-78
2023/06/17 12:11:09;;;;;;;10.98;8.65;;;28.40;47.90;;;;;;5134859;27;20031;-77
2023/06/17 12:13:39;;;;;;;13.63;8.85;;;28.50;47.10;;;;;;5119150;27;20035;-77
2023/06/17 12:16:23;;;;;;;9.13;6.90;;;28.50;46.60;;;;;;5101943;27;20039;-77
2023/06/17 12:18:48;;;;;;;;;;;28.60;45.80;;;;;;5121462;27;20039;-77
2023/06/17 12:21:14;;;;;;;9.55;7.90;;;28.60;44.50;;;;;;5117520;27;19968;-79
2023/06/17 12:23:40;;;;;;;9.07;7.05;;;28.40;44.70;;;;;;5138039;27;20048;-76
2023/06/17 12:26:05;;;;;;;9.45;7.00;;;28.40;44.70;;;;;;5138573;27;20100;-77
2023/06/17 12:28:32;;;;;;;8.82;7.82;;;28.40;45.30;;;;;;5135835;27;20042;-78
2023/06/17 12:30:58;;;;;;;11.10;6.88;;;28.50;45.40;;;;;;5101911;27;20092;-79
2023/06/17 12:33:23;;;;;;;8.55;6.68;;;28.70;44.90;;;;;;5135572;27;20437;-77